sensor_id;sensor_type;location;lat;lon;timestamp;temperature;humidity
62154;DHT22;48140;45.486;9.226;2023-02-18T00:01:15;10.60;92.30
62154;DHT22;48140;45.486;9.226;2023-02-18T00:03:42;9.90;91.90
62154;DHT22;48140;45.486;9.226;2023-02-18T00:08:41;9.90;92.20
62154;DHT22;48140;45.486;9.226;2023-02-18T00:11:08;9.80;92.20
62154;DHT22;48140;45.486;9.226;2023-02-18T00:13:34;9.90;92.30
62154;DHT22;48140;45.486;9.226;2023-02-18T00:16:05;9.80;92.30
62154;DHT22;48140;45.486;9.226;2023-02-18T00:18:31;9.80;92.50
62154;DHT22;48140;45.486;9.226;2023-02-18T00:20:56;9.80;92.50
62154;DHT22;48140;45.486;9.226;2023-02-18T00:23:22;9.80;92.60
62154;DHT22;48140;45.486;9.226;2023-02-18T00:25:48;9.70;92.70
62154;DHT22;48140;45.486;9.226;2023-02-18T00:28:14;9.80;92.80
62154;DHT22;48140;45.486;9.226;2023-02-18T00:30:41;9.70;92.90
62154;DHT22;48140;45.486;9.226;2023-02-18T00:33:07;9.70;93.10
62154;DHT22;48140;45.486;9.226;2023-02-18T00:35:33;9.60;93.50
62154;DHT22;48140;45.486;9.226;2023-02-18T00:37:58;9.70;93.50
62154;DHT22;48140;45.486;9.226;2023-02-18T00:40:24;9.70;93.60
62154;DHT22;48140;45.486;9.226;2023-02-18T00:42:50;9.70;93.60
62154;DHT22;48140;45.486;9.226;2023-02-18T00:45:15;9.70;93.90
62154;DHT22;48140;45.486;9.226;2023-02-18T00:47:41;9.60;94.20
62154;DHT22;48140;45.486;9.226;2023-02-18T00:50:07;9.60;94.20
62154;DHT22;48140;45.486;9.226;2023-02-18T00:52:33;9.60;94.50
62154;DHT22;48140;45.486;9.226;2023-02-18T00:54:59;9.60;94.90
62154;DHT22;48140;45.486;9.226;2023-02-18T00:57:24;9.60;94.90
62154;DHT22;48140;45.486;9.226;2023-02-18T00:59:50;9.60;95.00
62154;DHT22;48140;45.486;9.226;2023-02-18T01:02:16;9.50;95.20
62154;DHT22;48140;45.486;9.226;2023-02-18T01:04:42;9.60;95.30
62154;DHT22;48140;45.486;9.226;2023-02-18T01:07:07;9.70;95.40
62154;DHT22;48140;45.486;9.226;2023-02-18T01:09:35;9.70;95.50
62154;DHT22;48140;45.486;9.226;2023-02-18T01:12:00;9.70;95.60
62154;DHT22;48140;45.486;9.226;2023-02-18T01:14:26;9.70;95.70
62154;DHT22;48140;45.486;9.226;2023-02-18T01:16:52;9.70;95.80
62154;DHT22;48140;45.486;9.226;2023-02-18T01:19:17;9.70;95.90
62154;DHT22;48140;45.486;9.226;2023-02-18T01:21:43;9.70;96.00
62154;DHT22;48140;45.486;9.226;2023-02-18T01:24:09;9.70;95.90
62154;DHT22;48140;45.486;9.226;2023-02-18T01:26:34;9.70;95.60
62154;DHT22;48140;45.486;9.226;2023-02-18T01:29:00;9.70;95.60
62154;DHT22;48140;45.486;9.226;2023-02-18T01:31:26;9.90;95.80
62154;DHT22;48140;45.486;9.226;2023-02-18T01:33:52;9.70;95.80
62154;DHT22;48140;45.486;9.226;2023-02-18T01:36:17;9.60;95.90
62154;DHT22;48140;45.486;9.226;2023-02-18T01:38:43;9.60;96.10
62154;DHT22;48140;45.486;9.226;2023-02-18T01:41:09;9.80;95.90
62154;DHT22;48140;45.486;9.226;2023-02-18T01:43:35;9.70;96.10
62154;DHT22;48140;45.486;9.226;2023-02-18T01:46:14;9.70;95.90
62154;DHT22;48140;45.486;9.226;2023-02-18T01:48:42;9.70;96.10
62154;DHT22;48140;45.486;9.226;2023-02-18T01:56:19;9.70;95.70
62154;DHT22;48140;45.486;9.226;2023-02-18T01:58:46;9.90;95.60
62154;DHT22;48140;45.486;9.226;2023-02-18T02:01:12;9.70;95.60
62154;DHT22;48140;45.486;9.226;2023-02-18T02:03:38;9.70;95.60
62154;DHT22;48140;45.486;9.226;2023-02-18T02:06:10;9.70;95.70
62154;DHT22;48140;45.486;9.226;2023-02-18T02:08:38;9.70;95.50
62154;DHT22;48140;45.486;9.226;2023-02-18T02:11:38;9.70;95.50
62154;DHT22;48140;45.486;9.226;2023-02-18T02:14:15;9.70;95.70
62154;DHT22;48140;45.486;9.226;2023-02-18T02:33:45;9.70;95.30
62154;DHT22;48140;45.486;9.226;2023-02-18T02:36:17;9.70;95.10
62154;DHT22;48140;45.486;9.226;2023-02-18T02:44:45;9.70;94.90
62154;DHT22;48140;45.486;9.226;2023-02-18T02:47:20;9.60;94.80
62154;DHT22;48140;45.486;9.226;2023-02-18T02:50:08;9.60;94.80
62154;DHT22;48140;45.486;9.226;2023-02-18T02:52:45;9.60;94.80
62154;DHT22;48140;45.486;9.226;2023-02-18T02:55:12;9.60;94.90
62154;DHT22;48140;45.486;9.226;2023-02-18T02:57:51;9.50;95.10
62154;DHT22;48140;45.486;9.226;2023-02-18T03:00:20;9.50;95.00
62154;DHT22;48140;45.486;9.226;2023-02-18T03:03:10;9.50;94.80
62154;DHT22;48140;45.486;9.226;2023-02-18T03:11:15;9.50;94.80
62154;DHT22;48140;45.486;9.226;2023-02-18T03:19:29;9.50;94.70
62154;DHT22;48140;45.486;9.226;2023-02-18T03:22:00;9.50;94.80
62154;DHT22;48140;45.486;9.226;2023-02-18T03:24:31;9.50;94.90
62154;DHT22;48140;45.486;9.226;2023-02-18T03:27:01;9.40;94.70
62154;DHT22;48140;45.486;9.226;2023-02-18T03:29:29;9.40;94.60
62154;DHT22;48140;45.486;9.226;2023-02-18T03:31:59;9.40;94.70
62154;DHT22;48140;45.486;9.226;2023-02-18T03:34:34;9.40;94.80
62154;DHT22;48140;45.486;9.226;2023-02-18T03:37:01;9.40;94.70
62154;DHT22;48140;45.486;9.226;2023-02-18T03:39:30;9.40;94.60
62154;DHT22;48140;45.486;9.226;2023-02-18T03:41:57;9.40;94.60
62154;DHT22;48140;45.486;9.226;2023-02-18T03:44:24;9.40;94.60
62154;DHT22;48140;45.486;9.226;2023-02-18T03:46:50;9.40;94.70
62154;DHT22;48140;45.486;9.226;2023-02-18T03:49:17;9.40;94.40
62154;DHT22;48140;45.486;9.226;2023-02-18T03:51:42;9.40;94.50
62154;DHT22;48140;45.486;9.226;2023-02-18T03:54:09;9.40;94.40
62154;DHT22;48140;45.486;9.226;2023-02-18T03:56:36;9.50;94.30
62154;DHT22;48140;45.486;9.226;2023-02-18T03:59:02;9.40;94.30
62154;DHT22;48140;45.486;9.226;2023-02-18T04:01:28;9.40;94.30
62154;DHT22;48140;45.486;9.226;2023-02-18T04:03:53;9.40;94.30
62154;DHT22;48140;45.486;9.226;2023-02-18T04:06:23;9.30;94.40
62154;DHT22;48140;45.486;9.226;2023-02-18T04:08:48;9.30;94.40
62154;DHT22;48140;45.486;9.226;2023-02-18T04:11:14;9.30;94.50
62154;DHT22;48140;45.486;9.226;2023-02-18T04:13:40;9.30;94.60
62154;DHT22;48140;45.486;9.226;2023-02-18T04:16:06;9.30;94.60
62154;DHT22;48140;45.486;9.226;2023-02-18T04:18:32;9.30;94.60
62154;DHT22;48140;45.486;9.226;2023-02-18T04:20:57;9.30;94.70
62154;DHT22;48140;45.486;9.226;2023-02-18T04:23:23;9.20;94.60
62154;DHT22;48140;45.486;9.226;2023-02-18T04:25:49;9.30;94.80
62154;DHT22;48140;45.486;9.226;2023-02-18T04:28:15;9.20;94.80
62154;DHT22;48140;45.486;9.226;2023-02-18T04:30:42;9.20;94.90
62154;DHT22;48140;45.486;9.226;2023-02-18T04:33:08;9.20;95.00
62154;DHT22;48140;45.486;9.226;2023-02-18T04:35:35;9.20;94.90
62154;DHT22;48140;45.486;9.226;2023-02-18T04:38:01;9.20;94.90
62154;DHT22;48140;45.486;9.226;2023-02-18T04:40:27;9.20;95.00
62154;DHT22;48140;45.486;9.226;2023-02-18T04:42:56;9.10;95.00
62154;DHT22;48140;45.486;9.226;2023-02-18T04:45:22;9.10;95.10
62154;DHT22;48140;45.486;9.226;2023-02-18T04:47:48;9.10;95.20
62154;DHT22;48140;45.486;9.226;2023-02-18T04:50:13;9.20;95.30
62154;DHT22;48140;45.486;9.226;2023-02-18T04:52:39;9.10;95.40
62154;DHT22;48140;45.486;9.226;2023-02-18T04:55:05;9.10;95.30
62154;DHT22;48140;45.486;9.226;2023-02-18T04:57:31;9.10;95.30
62154;DHT22;48140;45.486;9.226;2023-02-18T04:59:56;9.10;95.50
62154;DHT22;48140;45.486;9.226;2023-02-18T05:02:22;9.00;95.30
62154;DHT22;48140;45.486;9.226;2023-02-18T05:04:48;9.00;95.30
62154;DHT22;48140;45.486;9.226;2023-02-18T05:07:13;9.00;95.30
62154;DHT22;48140;45.486;9.226;2023-02-18T05:09:39;9.00;95.30
62154;DHT22;48140;45.486;9.226;2023-02-18T05:12:05;9.00;95.30
62154;DHT22;48140;45.486;9.226;2023-02-18T05:14:31;9.00;95.40
62154;DHT22;48140;45.486;9.226;2023-02-18T05:16:56;9.00;95.50
62154;DHT22;48140;45.486;9.226;2023-02-18T05:19:22;9.00;95.60
62154;DHT22;48140;45.486;9.226;2023-02-18T05:21:47;8.90;95.50
62154;DHT22;48140;45.486;9.226;2023-02-18T05:24:13;8.90;95.70
62154;DHT22;48140;45.486;9.226;2023-02-18T05:26:39;8.90;95.90
62154;DHT22;48140;45.486;9.226;2023-02-18T05:29:04;8.90;95.70
62154;DHT22;48140;45.486;9.226;2023-02-18T05:31:30;8.80;95.80
62154;DHT22;48140;45.486;9.226;2023-02-18T05:33:56;8.80;95.90
62154;DHT22;48140;45.486;9.226;2023-02-18T05:36:21;8.80;96.10
62154;DHT22;48140;45.486;9.226;2023-02-18T05:38:47;8.80;96.40
62154;DHT22;48140;45.486;9.226;2023-02-18T05:41:12;8.70;96.50
62154;DHT22;48140;45.486;9.226;2023-02-18T05:43:38;8.70;97.00
62154;DHT22;48140;45.486;9.226;2023-02-18T05:46:22;8.80;96.90
62154;DHT22;48140;45.486;9.226;2023-02-18T05:48:48;8.70;97.10
62154;DHT22;48140;45.486;9.226;2023-02-18T05:51:14;8.60;97.50
62154;DHT22;48140;45.486;9.226;2023-02-18T05:53:40;8.50;97.60
62154;DHT22;48140;45.486;9.226;2023-02-18T05:56:06;8.50;97.80
62154;DHT22;48140;45.486;9.226;2023-02-18T05:58:32;8.50;97.80
62154;DHT22;48140;45.486;9.226;2023-02-18T06:00:57;8.50;98.10
62154;DHT22;48140;45.486;9.226;2023-02-18T06:03:23;8.50;98.20
62154;DHT22;48140;45.486;9.226;2023-02-18T06:05:49;8.40;98.30
62154;DHT22;48140;45.486;9.226;2023-02-18T06:08:15;8.40;98.40
62154;DHT22;48140;45.486;9.226;2023-02-18T06:10:41;8.40;98.40
62154;DHT22;48140;45.486;9.226;2023-02-18T06:13:07;8.30;98.20
62154;DHT22;48140;45.486;9.226;2023-02-18T06:15:33;8.30;98.60
62154;DHT22;48140;45.486;9.226;2023-02-18T06:17:58;8.30;98.50
62154;DHT22;48140;45.486;9.226;2023-02-18T06:20:24;8.30;98.50
62154;DHT22;48140;45.486;9.226;2023-02-18T06:22:49;8.20;98.40
62154;DHT22;48140;45.486;9.226;2023-02-18T06:25:15;8.20;98.70
62154;DHT22;48140;45.486;9.226;2023-02-18T06:27:41;8.00;99.20
62154;DHT22;48140;45.486;9.226;2023-02-18T06:30:07;7.80;99.60
62154;DHT22;48140;45.486;9.226;2023-02-18T06:32:33;7.80;99.80
62154;DHT22;48140;45.486;9.226;2023-02-18T06:34:58;7.70;99.90
62154;DHT22;48140;45.486;9.226;2023-02-18T06:37:24;7.80;99.70
62154;DHT22;48140;45.486;9.226;2023-02-18T06:39:49;7.90;99.60
62154;DHT22;48140;45.486;9.226;2023-02-18T06:42:15;7.80;99.90
62154;DHT22;48140;45.486;9.226;2023-02-18T06:44:41;7.80;99.90
62154;DHT22;48140;45.486;9.226;2023-02-18T06:47:06;7.90;99.70
62154;DHT22;48140;45.486;9.226;2023-02-18T06:49:32;7.90;99.90
62154;DHT22;48140;45.486;9.226;2023-02-18T06:51:58;7.90;99.90
62154;DHT22;48140;45.486;9.226;2023-02-18T06:54:23;7.90;99.90
62154;DHT22;48140;45.486;9.226;2023-02-18T06:56:49;7.90;99.90
62154;DHT22;48140;45.486;9.226;2023-02-18T06:59:15;8.00;99.90
62154;DHT22;48140;45.486;9.226;2023-02-18T07:01:41;8.00;99.80
62154;DHT22;48140;45.486;9.226;2023-02-18T07:04:07;8.10;99.70
62154;DHT22;48140;45.486;9.226;2023-02-18T07:06:32;8.10;99.90
62154;DHT22;48140;45.486;9.226;2023-02-18T07:08:58;8.20;99.60
62154;DHT22;48140;45.486;9.226;2023-02-18T07:11:24;8.20;99.60
62154;DHT22;48140;45.486;9.226;2023-02-18T07:13:49;8.30;99.30
62154;DHT22;48140;45.486;9.226;2023-02-18T07:16:15;8.30;99.30
62154;DHT22;48140;45.486;9.226;2023-02-18T07:18:41;8.40;99.20
62154;DHT22;48140;45.486;9.226;2023-02-18T07:21:07;8.50;98.80
62154;DHT22;48140;45.486;9.226;2023-02-18T07:23:32;8.50;98.50
62154;DHT22;48140;45.486;9.226;2023-02-18T07:26:10;8.60;98.70
62154;DHT22;48140;45.486;9.226;2023-02-18T07:28:36;8.70;98.60
62154;DHT22;48140;45.486;9.226;2023-02-18T07:31:02;8.60;98.10
62154;DHT22;48140;45.486;9.226;2023-02-18T07:33:28;8.60;98.10
62154;DHT22;48140;45.486;9.226;2023-02-18T07:35:56;8.60;98.50
62154;DHT22;48140;45.486;9.226;2023-02-18T07:38:22;8.70;98.20
62154;DHT22;48140;45.486;9.226;2023-02-18T07:40:48;8.70;97.90
62154;DHT22;48140;45.486;9.226;2023-02-18T07:43:15;8.80;97.30
62154;DHT22;48140;45.486;9.226;2023-02-18T07:45:41;8.80;97.40
62154;DHT22;48140;45.486;9.226;2023-02-18T07:48:07;9.00;97.00
62154;DHT22;48140;45.486;9.226;2023-02-18T07:50:33;8.90;97.40
62154;DHT22;48140;45.486;9.226;2023-02-18T07:53:02;9.00;97.10
62154;DHT22;48140;45.486;9.226;2023-02-18T07:55:27;9.10;96.90
62154;DHT22;48140;45.486;9.226;2023-02-18T07:58:14;9.00;97.00
62154;DHT22;48140;45.486;9.226;2023-02-18T08:00:40;9.20;96.60
62154;DHT22;48140;45.486;9.226;2023-02-18T08:03:05;9.30;96.10
62154;DHT22;48140;45.486;9.226;2023-02-18T08:05:31;9.30;96.10
62154;DHT22;48140;45.486;9.226;2023-02-18T08:07:56;9.40;95.60
62154;DHT22;48140;45.486;9.226;2023-02-18T08:10:22;9.50;95.40
62154;DHT22;48140;45.486;9.226;2023-02-18T08:12:48;9.50;95.20
62154;DHT22;48140;45.486;9.226;2023-02-18T08:15:14;9.60;95.40
62154;DHT22;48140;45.486;9.226;2023-02-18T08:17:39;9.70;95.10
62154;DHT22;48140;45.486;9.226;2023-02-18T08:20:05;9.90;94.80
62154;DHT22;48140;45.486;9.226;2023-02-18T08:22:31;10.00;94.80
62154;DHT22;48140;45.486;9.226;2023-02-18T08:24:57;10.10;94.20
62154;DHT22;48140;45.486;9.226;2023-02-18T08:27:23;10.20;94.00
62154;DHT22;48140;45.486;9.226;2023-02-18T08:29:49;10.30;93.60
62154;DHT22;48140;45.486;9.226;2023-02-18T08:32:15;10.40;93.40
62154;DHT22;48140;45.486;9.226;2023-02-18T08:34:42;10.60;92.70
62154;DHT22;48140;45.486;9.226;2023-02-18T08:37:07;10.60;92.60
62154;DHT22;48140;45.486;9.226;2023-02-18T08:39:37;10.80;92.60
62154;DHT22;48140;45.486;9.226;2023-02-18T08:42:04;11.20;92.00
62154;DHT22;48140;45.486;9.226;2023-02-18T08:44:29;11.20;91.40
62154;DHT22;48140;45.486;9.226;2023-02-18T08:46:55;11.40;91.50
62154;DHT22;48140;45.486;9.226;2023-02-18T08:49:21;11.70;90.40
62154;DHT22;48140;45.486;9.226;2023-02-18T08:51:49;11.90;89.90
62154;DHT22;48140;45.486;9.226;2023-02-18T08:54:16;12.20;88.80
62154;DHT22;48140;45.486;9.226;2023-02-18T08:56:42;12.40;87.10
62154;DHT22;48140;45.486;9.226;2023-02-18T08:59:07;12.60;90.80
62154;DHT22;48140;45.486;9.226;2023-02-18T09:01:33;12.90;85.70
62154;DHT22;48140;45.486;9.226;2023-02-18T09:03:59;13.10;84.30
62154;DHT22;48140;45.486;9.226;2023-02-18T09:06:24;13.20;83.30
62154;DHT22;48140;45.486;9.226;2023-02-18T09:08:50;13.50;82.60
62154;DHT22;48140;45.486;9.226;2023-02-18T09:11:17;13.50;81.30
62154;DHT22;48140;45.486;9.226;2023-02-18T09:13:44;13.80;80.50
62154;DHT22;48140;45.486;9.226;2023-02-18T09:16:13;14.30;79.00
62154;DHT22;48140;45.486;9.226;2023-02-18T09:18:39;14.30;77.70
62154;DHT22;48140;45.486;9.226;2023-02-18T09:21:06;14.50;76.50
62154;DHT22;48140;45.486;9.226;2023-02-18T09:23:34;14.70;76.60
62154;DHT22;48140;45.486;9.226;2023-02-18T09:26:03;14.70;76.90
62154;DHT22;48140;45.486;9.226;2023-02-18T09:28:29;14.80;75.10
62154;DHT22;48140;45.486;9.226;2023-02-18T09:30:55;15.10;73.70
62154;DHT22;48140;45.486;9.226;2023-02-18T09:33:20;15.40;73.50
62154;DHT22;48140;45.486;9.226;2023-02-18T09:35:46;15.50;73.30
62154;DHT22;48140;45.486;9.226;2023-02-18T09:38:15;15.50;72.50
62154;DHT22;48140;45.486;9.226;2023-02-18T09:40:50;15.90;70.50
62154;DHT22;48140;45.486;9.226;2023-02-18T09:43:30;15.90;68.50
62154;DHT22;48140;45.486;9.226;2023-02-18T09:45:58;16.30;68.50
62154;DHT22;48140;45.486;9.226;2023-02-18T09:48:33;16.50;67.30
62154;DHT22;48140;45.486;9.226;2023-02-18T09:50:59;16.50;67.40
62154;DHT22;48140;45.486;9.226;2023-02-18T09:53:25;16.10;69.30
62154;DHT22;48140;45.486;9.226;2023-02-18T09:55:53;15.50;71.90
62154;DHT22;48140;45.486;9.226;2023-02-18T09:58:24;15.60;72.80
62154;DHT22;48140;45.486;9.226;2023-02-18T10:01:16;16.10;70.40
62154;DHT22;48140;45.486;9.226;2023-02-18T10:03:44;16.60;67.60
62154;DHT22;48140;45.486;9.226;2023-02-18T10:06:21;16.90;66.90
62154;DHT22;48140;45.486;9.226;2023-02-18T10:08:50;17.00;66.40
62154;DHT22;48140;45.486;9.226;2023-02-18T10:11:28;16.70;66.90
62154;DHT22;48140;45.486;9.226;2023-02-18T10:13:55;16.90;66.80
62154;DHT22;48140;45.486;9.226;2023-02-18T10:16:22;17.20;65.20
62154;DHT22;48140;45.486;9.226;2023-02-18T10:18:50;17.40;63.60
62154;DHT22;48140;45.486;9.226;2023-02-18T10:21:21;16.90;66.60
62154;DHT22;48140;45.486;9.226;2023-02-18T10:24:26;17.00;66.50
62154;DHT22;48140;45.486;9.226;2023-02-18T10:26:53;16.70;68.50
62154;DHT22;48140;45.486;9.226;2023-02-18T10:29:20;16.30;69.70
62154;DHT22;48140;45.486;9.226;2023-02-18T10:34:38;16.40;71.20
62154;DHT22;48140;45.486;9.226;2023-02-18T10:42:25;18.00;64.00
62154;DHT22;48140;45.486;9.226;2023-02-18T10:52:58;17.30;66.60
62154;DHT22;48140;45.486;9.226;2023-02-18T10:55:37;17.80;65.00
62154;DHT22;48140;45.486;9.226;2023-02-18T11:00:51;19.30;57.30
62154;DHT22;48140;45.486;9.226;2023-02-18T11:03:21;19.60;55.80
62154;DHT22;48140;45.486;9.226;2023-02-18T11:05:53;19.00;57.80
62154;DHT22;48140;45.486;9.226;2023-02-18T11:08:23;18.80;59.00
62154;DHT22;48140;45.486;9.226;2023-02-18T11:10:50;18.40;60.50
62154;DHT22;48140;45.486;9.226;2023-02-18T11:13:29;17.60;64.60
62154;DHT22;48140;45.486;9.226;2023-02-18T11:16:04;17.60;65.10
62154;DHT22;48140;45.486;9.226;2023-02-18T11:18:39;17.80;65.50
62154;DHT22;48140;45.486;9.226;2023-02-18T11:21:30;18.00;64.30
62154;DHT22;48140;45.486;9.226;2023-02-18T11:23:57;18.90;60.00
62154;DHT22;48140;45.486;9.226;2023-02-18T11:26:32;19.10;58.80
62154;DHT22;48140;45.486;9.226;2023-02-18T11:29:06;19.30;56.60
62154;DHT22;48140;45.486;9.226;2023-02-18T11:31:43;19.30;56.30
62154;DHT22;48140;45.486;9.226;2023-02-18T11:34:20;19.30;56.40
62154;DHT22;48140;45.486;9.226;2023-02-18T11:36:47;19.50;55.70
62154;DHT22;48140;45.486;9.226;2023-02-18T11:39:17;19.20;56.10
62154;DHT22;48140;45.486;9.226;2023-02-18T11:41:58;18.00;60.60
62154;DHT22;48140;45.486;9.226;2023-02-18T11:44:47;18.30;61.80
62154;DHT22;48140;45.486;9.226;2023-02-18T11:49:41;18.80;57.50
62154;DHT22;48140;45.486;9.226;2023-02-18T11:52:19;18.70;58.00
62154;DHT22;48140;45.486;9.226;2023-02-18T11:55:22;18.90;57.30
62154;DHT22;48140;45.486;9.226;2023-02-18T11:58:01;19.40;55.00
62154;DHT22;48140;45.486;9.226;2023-02-18T12:00:46;19.70;54.40
62154;DHT22;48140;45.486;9.226;2023-02-18T12:03:30;20.40;50.40
62154;DHT22;48140;45.486;9.226;2023-02-18T12:06:02;20.30;50.90
62154;DHT22;48140;45.486;9.226;2023-02-18T12:08:33;20.30;50.00
62154;DHT22;48140;45.486;9.226;2023-02-18T12:11:16;20.10;50.50
62154;DHT22;48140;45.486;9.226;2023-02-18T12:13:52;20.40;50.90
62154;DHT22;48140;45.486;9.226;2023-02-18T12:16:40;20.80;47.50
62154;DHT22;48140;45.486;9.226;2023-02-18T12:24:34;22.10;44.20
62154;DHT22;48140;45.486;9.226;2023-02-18T12:27:35;22.60;42.20
62154;DHT22;48140;45.486;9.226;2023-02-18T12:30:45;22.70;41.10
62154;DHT22;48140;45.486;9.226;2023-02-18T12:33:59;22.10;42.30
62154;DHT22;48140;45.486;9.226;2023-02-18T12:39:28;20.50;47.00
62154;DHT22;48140;45.486;9.226;2023-02-18T12:42:06;21.60;45.40
62154;DHT22;48140;45.486;9.226;2023-02-18T12:47:38;22.30;41.90
62154;DHT22;48140;45.486;9.226;2023-02-18T13:16:19;20.80;44.90
62154;DHT22;48140;45.486;9.226;2023-02-18T13:19:11;20.40;46.50
62154;DHT22;48140;45.486;9.226;2023-02-18T13:21:39;20.50;46.40
62154;DHT22;48140;45.486;9.226;2023-02-18T13:24:13;20.90;45.40
62154;DHT22;48140;45.486;9.226;2023-02-18T13:26:42;22.10;43.00
62154;DHT22;48140;45.486;9.226;2023-02-18T13:32:26;22.70;39.60
62154;DHT22;48140;45.486;9.226;2023-02-18T13:35:06;22.70;40.20
62154;DHT22;48140;45.486;9.226;2023-02-18T13:40:24;22.90;39.20
62154;DHT22;48140;45.486;9.226;2023-02-18T13:43:19;22.60;39.80
62154;DHT22;48140;45.486;9.226;2023-02-18T13:51:40;24.40;34.70
62154;DHT22;48140;45.486;9.226;2023-02-18T14:00:04;23.90;36.30
62154;DHT22;48140;45.486;9.226;2023-02-18T14:02:36;24.20;35.20
62154;DHT22;48140;45.486;9.226;2023-02-18T14:05:38;25.10;34.90
62154;DHT22;48140;45.486;9.226;2023-02-18T14:08:36;25.00;34.50
62154;DHT22;48140;45.486;9.226;2023-02-18T14:16:18;24.90;34.90
62154;DHT22;48140;45.486;9.226;2023-02-18T14:23:41;25.30;33.30
62154;DHT22;48140;45.486;9.226;2023-02-18T14:28:54;24.80;33.70
62154;DHT22;48140;45.486;9.226;2023-02-18T14:42:47;22.70;39.90
62154;DHT22;48140;45.486;9.226;2023-02-18T14:45:57;22.90;38.90
62154;DHT22;48140;45.486;9.226;2023-02-18T14:48:51;23.10;38.50
62154;DHT22;48140;45.486;9.226;2023-02-18T14:51:26;23.50;37.60
62154;DHT22;48140;45.486;9.226;2023-02-18T14:53:56;24.00;36.50
62154;DHT22;48140;45.486;9.226;2023-02-18T14:56:28;24.90;35.00
62154;DHT22;48140;45.486;9.226;2023-02-18T14:58:57;25.90;32.70
62154;DHT22;48140;45.486;9.226;2023-02-18T15:01:42;26.30;31.80
62154;DHT22;48140;45.486;9.226;2023-02-18T15:04:13;27.10;30.80
62154;DHT22;48140;45.486;9.226;2023-02-18T15:06:39;26.00;30.80
62154;DHT22;48140;45.486;9.226;2023-02-18T15:09:23;25.90;32.50
62154;DHT22;48140;45.486;9.226;2023-02-18T15:12:01;25.80;31.60
62154;DHT22;48140;45.486;9.226;2023-02-18T15:14:32;25.90;31.80
62154;DHT22;48140;45.486;9.226;2023-02-18T15:17:00;25.90;31.50
62154;DHT22;48140;45.486;9.226;2023-02-18T15:19:38;25.40;31.90
62154;DHT22;48140;45.486;9.226;2023-02-18T15:22:05;25.10;34.40
62154;DHT22;48140;45.486;9.226;2023-02-18T15:24:38;24.70;34.20
62154;DHT22;48140;45.486;9.226;2023-02-18T15:27:17;24.20;34.20
62154;DHT22;48140;45.486;9.226;2023-02-18T15:29:44;23.90;35.20
62154;DHT22;48140;45.486;9.226;2023-02-18T15:32:16;23.70;36.40
62154;DHT22;48140;45.486;9.226;2023-02-18T15:34:43;23.80;36.00
62154;DHT22;48140;45.486;9.226;2023-02-18T15:37:12;23.50;36.40
62154;DHT22;48140;45.486;9.226;2023-02-18T15:39:39;23.10;37.50
62154;DHT22;48140;45.486;9.226;2023-02-18T15:42:27;22.40;38.60
62154;DHT22;48140;45.486;9.226;2023-02-18T15:45:17;21.90;40.40
62154;DHT22;48140;45.486;9.226;2023-02-18T15:47:48;21.80;40.90
62154;DHT22;48140;45.486;9.226;2023-02-18T15:50:21;22.00;40.40
62154;DHT22;48140;45.486;9.226;2023-02-18T15:52:48;22.50;39.30
62154;DHT22;48140;45.486;9.226;2023-02-18T15:55:31;21.80;40.20
62154;DHT22;48140;45.486;9.226;2023-02-18T15:58:16;21.70;40.50
62154;DHT22;48140;45.486;9.226;2023-02-18T16:01:04;21.60;41.40
62154;DHT22;48140;45.486;9.226;2023-02-18T16:03:44;21.80;40.90
62154;DHT22;48140;45.486;9.226;2023-02-18T16:06:26;21.40;42.00
62154;DHT22;48140;45.486;9.226;2023-02-18T16:09:11;21.30;41.70
62154;DHT22;48140;45.486;9.226;2023-02-18T16:11:41;20.60;44.10
62154;DHT22;48140;45.486;9.226;2023-02-18T16:14:27;21.00;43.20
62154;DHT22;48140;45.486;9.226;2023-02-18T16:17:20;20.70;44.30
62154;DHT22;48140;45.486;9.226;2023-02-18T16:19:58;20.70;44.10
62154;DHT22;48140;45.486;9.226;2023-02-18T16:22:40;20.80;44.70
62154;DHT22;48140;45.486;9.226;2023-02-18T16:25:15;20.30;45.00
62154;DHT22;48140;45.486;9.226;2023-02-18T16:30:29;19.80;47.90
62154;DHT22;48140;45.486;9.226;2023-02-18T16:32:57;19.60;47.80
62154;DHT22;48140;45.486;9.226;2023-02-18T16:35:24;18.90;50.50
62154;DHT22;48140;45.486;9.226;2023-02-18T16:37:55;18.00;54.80
62154;DHT22;48140;45.486;9.226;2023-02-18T16:43:05;17.10;60.90
62154;DHT22;48140;45.486;9.226;2023-02-18T16:45:44;16.70;64.10
62154;DHT22;48140;45.486;9.226;2023-02-18T16:48:27;16.30;66.90
62154;DHT22;48140;45.486;9.226;2023-02-18T16:50:54;16.00;68.80
62154;DHT22;48140;45.486;9.226;2023-02-18T16:53:20;15.90;70.80
62154;DHT22;48140;45.486;9.226;2023-02-18T16:55:48;15.50;72.40
62154;DHT22;48140;45.486;9.226;2023-02-18T16:58:14;15.70;73.20
62154;DHT22;48140;45.486;9.226;2023-02-18T17:00:42;15.30;74.40
62154;DHT22;48140;45.486;9.226;2023-02-18T17:03:09;15.20;74.80
62154;DHT22;48140;45.486;9.226;2023-02-18T17:05:36;15.00;76.00
62154;DHT22;48140;45.486;9.226;2023-02-18T17:08:20;15.50;77.50
62154;DHT22;48140;45.486;9.226;2023-02-18T17:10:48;14.70;77.60
62154;DHT22;48140;45.486;9.226;2023-02-18T17:13:32;14.60;78.30
62154;DHT22;48140;45.486;9.226;2023-02-18T17:15:58;14.30;79.30
62154;DHT22;48140;45.486;9.226;2023-02-18T17:18:24;14.40;81.80
62154;DHT22;48140;45.486;9.226;2023-02-18T17:20:51;14.20;80.90
62154;DHT22;48140;45.486;9.226;2023-02-18T17:23:20;14.10;81.50
62154;DHT22;48140;45.486;9.226;2023-02-18T17:25:48;14.00;82.10
62154;DHT22;48140;45.486;9.226;2023-02-18T17:28:14;14.00;82.60
62154;DHT22;48140;45.486;9.226;2023-02-18T17:30:51;14.00;82.90
62154;DHT22;48140;45.486;9.226;2023-02-18T17:33:18;13.90;83.20
62154;DHT22;48140;45.486;9.226;2023-02-18T17:35:44;13.80;83.60
62154;DHT22;48140;45.486;9.226;2023-02-18T17:43:21;13.40;86.60
62154;DHT22;48140;45.486;9.226;2023-02-18T17:45:54;13.30;87.10
62154;DHT22;48140;45.486;9.226;2023-02-18T17:48:20;13.30;88.30
62154;DHT22;48140;45.486;9.226;2023-02-18T17:50:46;13.30;87.70
62154;DHT22;48140;45.486;9.226;2023-02-18T17:53:13;13.20;87.80
62154;DHT22;48140;45.486;9.226;2023-02-18T17:55:40;13.20;89.40
62154;DHT22;48140;45.486;9.226;2023-02-18T17:58:07;13.10;88.70
62154;DHT22;48140;45.486;9.226;2023-02-18T18:01:09;13.20;88.80
62154;DHT22;48140;45.486;9.226;2023-02-18T18:03:27;13.10;89.00
62154;DHT22;48140;45.486;9.226;2023-02-18T18:05:55;13.00;89.30
62154;DHT22;48140;45.486;9.226;2023-02-18T18:08:22;13.00;90.30
62154;DHT22;48140;45.486;9.226;2023-02-18T18:10:56;13.00;89.60
62154;DHT22;48140;45.486;9.226;2023-02-18T18:13:29;13.10;90.70
62154;DHT22;48140;45.486;9.226;2023-02-18T18:15:57;13.00;89.60
62154;DHT22;48140;45.486;9.226;2023-02-18T18:18:23;12.90;89.70
62154;DHT22;48140;45.486;9.226;2023-02-18T18:20:56;12.80;90.10
62154;DHT22;48140;45.486;9.226;2023-02-18T18:23:24;12.70;90.40
62154;DHT22;48140;45.486;9.226;2023-02-18T18:25:55;12.80;90.70
62154;DHT22;48140;45.486;9.226;2023-02-18T18:28:22;12.50;90.80
62154;DHT22;48140;45.486;9.226;2023-02-18T18:30:51;12.50;90.90